Time;durP1;ratioP1;P1;durP2;ratioP2;P2;SDS_P1;SDS_P2;PMS_P1;PMS_P2;Temp;Humidity;BMP_temperature;BMP_pressure;BME280_temperature;BME280_humidity;BME280_pressure;Samples;Min_cycle;Max_cycle;Signal;HPM_P1;HPM_P2
2023/06/11 00:00:41;;;;;;;7.10;5.88;;;18.70;99.90;;;;;;4862689;29;20500;-76
2023/06/11 00:03:09;;;;;;;10.88;6.57;;;18.80;99.90;;;;;;4839706;29;20486;-76
2023/06/11 00:05:36;;;;;;;10.73;6.53;;;18.80;99.90;;;;;;4845681;29;20053;-76
2023/06/11 00:08:04;;;;;;;9.05;6.95;;;18.70;99.90;;;;;;4854990;29;22294;-76
2023/06/11 00:10:31;;;;;;;10.88;6.95;;;18.70;99.90;;;;;;4873234;29;20130;-76
2023/06/11 00:12:58;;;;;;;9.95;6.43;;;18.70;99.90;;;;;;4864654;29;20063;-76
2023/06/11 00:15:25;;;;;;;9.32;6.53;;;18.80;99.90;;;;;;4865209;29;22355;-76
2023/06/11 00:17:53;;;;;;;12.27;6.78;;;18.80;99.90;;;;;;4880927;29;20639;-76
2023/06/11 00:20:20;;;;;;;8.68;6.38;;;18.70;99.90;;;;;;4850415;29;20052;-76
2023/06/11 00:22:48;;;;;;;9.18;6.07;;;18.70;99.90;;;;;;4851641;29;20052;-76
2023/06/11 00:25:15;;;;;;;11.23;7.25;;;18.70;99.90;;;;;;4863747;29;20052;-76
2023/06/11 00:27:42;;;;;;;10.63;5.95;;;18.70;99.90;;;;;;4852812;29;20517;-76
2023/06/11 00:30:11;;;;;;;9.82;6.55;;;18.70;99.90;;;;;;4860837;29;20063;-76
2023/06/11 00:32:38;;;;;;;7.90;6.40;;;18.70;99.90;;;;;;4851691;29;20059;-76
2023/06/11 00:35:07;;;;;;;9.30;6.82;;;18.60;99.90;;;;;;4868731;29;20083;-76
2023/06/11 00:37:35;;;;;;;9.15;6.82;;;18.60;99.90;;;;;;4866152;29;20067;-76
2023/06/11 00:40:03;;;;;;;13.82;7.50;;;18.60;99.90;;;;;;4834217;29;20440;-76
2023/06/11 00:42:33;;;;;;;10.43;7.18;;;18.50;99.90;;;;;;4847804;29;20064;-76
2023/06/11 00:45:03;;;;;;;9.60;6.85;;;18.50;99.90;;;;;;4865917;29;20516;-76
2023/06/11 00:47:32;;;;;;;11.02;6.63;;;18.50;99.90;;;;;;4863441;29;20099;-76
2023/06/11 00:50:02;;;;;;;9.73;7.28;;;18.60;99.90;;;;;;4861344;29;20044;-76
2023/06/11 00:52:29;;;;;;;12.27;6.78;;;18.60;99.90;;;;;;4860432;29;20048;-75
2023/06/11 00:54:57;;;;;;;9.98;7.20;;;18.60;99.90;;;;;;4846526;29;20127;-76
2023/06/11 00:57:25;;;;;;;8.15;6.20;;;18.60;99.90;;;;;;4853330;29;20055;-76
2023/06/11 00:59:55;;;;;;;10.82;6.93;;;18.60;99.90;;;;;;4850504;29;20062;-76
2023/06/11 01:02:36;;;;;;;10.30;7.68;;;18.70;99.90;;;;;;4863707;29;20319;-76
2023/06/11 01:05:05;;;;;;;10.63;7.38;;;18.60;99.90;;;;;;4860512;29;20063;-76
2023/06/11 01:07:36;;;;;;;12.13;7.85;;;18.60;99.90;;;;;;4860827;29;22218;-76
2023/06/11 01:10:05;;;;;;;16.08;8.00;;;18.60;99.90;;;;;;4874580;29;20142;-76
2023/06/11 01:12:35;;;;;;;9.80;7.32;;;18.60;99.90;;;;;;4847424;29;20279;-76
2023/06/11 01:15:02;;;;;;;9.98;7.68;;;18.60;99.90;;;;;;4860329;29;20036;-76
2023/06/11 01:17:40;;;;;;;11.10;7.97;;;18.60;99.90;;;;;;4851863;29;20476;-76
2023/06/11 01:20:25;;;;;;;11.18;8.18;;;18.60;99.90;;;;;;4844842;29;20077;-76
2023/06/11 01:23:17;;;;;;;10.45;7.78;;;18.50;99.90;;;;;;4872875;29;22053;-76
2023/06/11 01:26:23;;;;;;;10.60;7.90;;;18.60;99.90;;;;;;4856083;29;20091;-76
2023/06/11 01:28:56;;;;;;;11.73;8.35;;;18.50;99.90;;;;;;4832503;29;20103;-76
2023/06/11 01:31:29;;;;;;;13.15;8.55;;;18.50;99.90;;;;;;4846976;29;20056;-76
2023/06/11 01:33:57;;;;;;;10.93;8.23;;;18.50;99.90;;;;;;4837495;29;20620;-76
2023/06/11 01:36:34;;;;;;;12.45;8.15;;;18.50;99.90;;;;;;4857385;29;20538;-76
2023/06/11 01:39:02;;;;;;;10.85;8.52;;;18.50;99.90;;;;;;4839998;29;20084;-76
2023/06/11 01:41:54;;;;;;;12.88;9.55;;;18.40;99.90;;;;;;4857459;29;20111;-76
2023/06/11 01:44:22;;;;;;;13.15;8.80;;;18.40;99.90;;;;;;4836671;29;22310;-76
2023/06/11 01:46:49;;;;;;;12.23;8.95;;;18.30;99.90;;;;;;4864017;29;20056;-76
2023/06/11 01:49:17;;;;;;;13.05;9.52;;;18.30;99.90;;;;;;4837772;29;20177;-76
2023/06/11 01:51:45;;;;;;;10.35;8.63;;;18.30;99.90;;;;;;4844060;29;20080;-76
2023/06/11 01:54:12;;;;;;;10.05;8.23;;;18.40;99.90;;;;;;4849497;29;20504;-76
2023/06/11 01:56:39;;;;;;;12.23;9.23;;;18.40;99.90;;;;;;4848696;29;20048;-76
2023/06/11 01:59:06;;;;;;;12.13;9.05;;;18.40;99.90;;;;;;4853393;29;20066;-76
2023/06/11 02:01:36;;;;;;;11.65;8.70;;;18.40;99.90;;;;;;4845742;29;20492;-76
2023/06/11 02:04:04;;;;;;;15.85;9.63;;;18.40;99.90;;;;;;4845498;29;20067;-76
2023/06/11 02:06:33;;;;;;;12.75;9.15;;;18.40;99.90;;;;;;4870655;29;20060;-76
2023/06/11 02:09:00;;;;;;;12.82;8.75;;;18.40;99.90;;;;;;4854742;29;20570;-76
2023/06/11 02:11:27;;;;;;;12.80;9.05;;;18.40;99.90;;;;;;4842809;29;22358;-76
2023/06/11 02:13:55;;;;;;;11.75;8.75;;;18.40;99.90;;;;;;4830645;29;20053;-76
2023/06/11 02:16:22;;;;;;;13.90;9.13;;;18.40;99.90;;;;;;4859199;29;20044;-76
2023/06/11 02:18:52;;;;;;;15.10;9.27;;;18.30;99.90;;;;;;4840484;29;20052;-76
2023/06/11 02:21:19;;;;;;;12.80;8.43;;;18.40;99.90;;;;;;4840044;29;20953;-76
2023/06/11 02:23:46;;;;;;;15.05;9.52;;;18.40;99.90;;;;;;4849120;29;20906;-76
2023/06/11 02:26:13;;;;;;;12.50;8.35;;;18.30;99.90;;;;;;4837717;29;20071;-76
2023/06/11 02:28:41;;;;;;;13.50;9.10;;;18.40;99.90;;;;;;4841629;29;20056;-76
2023/06/11 02:31:08;;;;;;;16.02;9.93;;;18.40;99.90;;;;;;4848828;29;20060;-76
2023/06/11 02:33:35;;;;;;;12.38;8.82;;;18.30;99.90;;;;;;4831952;29;20040;-76
2023/06/11 02:36:03;;;;;;;12.95;8.48;;;18.20;99.90;;;;;;4864373;29;20222;-76
2023/06/11 02:38:30;;;;;;;12.00;9.02;;;18.30;99.90;;;;;;4857931;29;20052;-76
2023/06/11 02:40:57;;;;;;;11.60;8.95;;;18.30;99.90;;;;;;4858716;29;21050;-76
2023/06/11 02:43:25;;;;;;;12.40;8.93;;;18.30;99.90;;;;;;4863152;29;20781;-76
2023/06/11 02:45:52;;;;;;;12.65;9.15;;;18.30;99.90;;;;;;4852991;29;20755;-76
2023/06/11 02:48:19;;;;;;;11.63;9.38;;;18.20;99.90;;;;;;4827617;29;20547;-76
2023/06/11 02:50:46;;;;;;;11.82;8.73;;;18.30;99.90;;;;;;4857464;29;20449;-76
2023/06/11 02:53:13;;;;;;;12.68;9.32;;;18.30;99.90;;;;;;4862476;29;20504;-76
2023/06/11 02:55:41;;;;;;;13.27;8.73;;;18.20;99.90;;;;;;4835400;29;20053;-76
2023/06/11 02:58:08;;;;;;;11.10;8.40;;;18.30;99.90;;;;;;4843808;29;20049;-76
2023/06/11 03:00:35;;;;;;;12.18;9.60;;;18.30;99.90;;;;;;4851114;29;20058;-76
2023/06/11 03:03:03;;;;;;;11.13;8.55;;;18.30;99.90;;;;;;4852328;29;20062;-76
2023/06/11 03:05:37;;;;;;;14.07;8.95;;;18.30;99.90;;;;;;4832881;29;22744;-76
2023/06/11 03:08:04;;;;;;;11.63;7.88;;;18.30;99.90;;;;;;4857247;29;20939;-76
2023/06/11 03:10:31;;;;;;;15.18;9.23;;;18.30;99.90;;;;;;4836141;29;20059;-76
2023/06/11 03:12:59;;;;;;;10.00;7.85;;;18.30;99.90;;;;;;4832528;29;20139;-76
2023/06/11 03:15:26;;;;;;;13.85;8.80;;;18.40;99.90;;;;;;4862132;29;20208;-76
2023/06/11 03:17:54;;;;;;;13.90;8.75;;;18.30;99.90;;;;;;4841003;29;20063;-76
2023/06/11 03:20:22;;;;;;;11.55;8.13;;;18.20;99.90;;;;;;4862206;29;20044;-76
2023/06/11 03:22:50;;;;;;;12.02;8.77;;;18.30;99.90;;;;;;4846578;29;20190;-76
2023/06/11 03:25:17;;;;;;;12.00;8.90;;;18.30;99.90;;;;;;4852658;29;20059;-76
2023/06/11 03:27:45;;;;;;;11.05;8.02;;;18.40;99.90;;;;;;4838877;29;22776;-76
2023/06/11 03:30:12;;;;;;;12.23;8.60;;;18.40;99.90;;;;;;4859920;29;20103;-76
2023/06/11 03:32:40;;;;;;;12.75;8.40;;;18.40;99.90;;;;;;4859691;29;20048;-76
2023/06/11 03:35:09;;;;;;;10.55;7.90;;;18.40;99.90;;;;;;4850530;29;20048;-76
2023/06/11 03:37:37;;;;;;;10.15;7.75;;;18.30;99.90;;;;;;4846081;29;20048;-76
2023/06/11 03:40:07;;;;;;;12.35;7.70;;;18.40;99.90;;;;;;4844679;29;20044;-76
2023/06/11 03:42:34;;;;;;;11.25;8.10;;;18.40;99.90;;;;;;4842698;29;20048;-76
2023/06/11 03:45:02;;;;;;;10.98;8.43;;;18.40;99.90;;;;;;4862878;29;20055;-76
2023/06/11 03:47:30;;;;;;;11.88;7.90;;;18.40;99.90;;;;;;4858930;29;20476;-76
2023/06/11 03:49:57;;;;;;;11.57;7.93;;;18.40;99.90;;;;;;4846306;29;20059;-76
2023/06/11 03:52:25;;;;;;;12.68;7.70;;;18.40;99.90;;;;;;4854141;29;20044;-76
2023/06/11 03:54:52;;;;;;;11.55;8.00;;;18.50;99.90;;;;;;4833004;29;20052;-76
2023/06/11 03:57:19;;;;;;;10.32;7.57;;;18.40;99.90;;;;;;4860510;29;20044;-76
2023/06/11 03:59:47;;;;;;;11.10;7.60;;;18.40;99.90;;;;;;4857406;29;20526;-76
2023/06/11 04:02:14;;;;;;;8.68;7.10;;;18.50;99.90;;;;;;4858405;29;22288;-76
2023/06/11 04:04:42;;;;;;;10.23;8.07;;;18.50;99.90;;;;;;4834878;29;20052;-76
2023/06/11 04:07:10;;;;;;;9.45;6.93;;;18.50;99.90;;;;;;4836781;29;20055;-75
2023/06/11 04:09:38;;;;;;;11.07;7.70;;;18.50;99.90;;;;;;4843058;29;20401;-76
2023/06/11 04:12:06;;;;;;;11.07;7.00;;;18.50;99.90;;;;;;4841048;29;20060;-76
2023/06/11 04:14:34;;;;;;;8.48;6.95;;;18.50;99.90;;;;;;4863440;29;20056;-76
2023/06/11 04:17:01;;;;;;;10.88;6.93;;;18.60;99.90;;;;;;4875084;29;20091;-76
2023/06/11 04:19:29;;;;;;;9.68;7.07;;;18.50;99.90;;;;;;4861793;29;20938;-76
2023/06/11 04:21:56;;;;;;;13.20;7.70;;;18.40;99.90;;;;;;4851627;29;20093;-76
2023/06/11 04:24:23;;;;;;;8.48;6.05;;;18.50;99.90;;;;;;4851655;29;20061;-76
2023/06/11 04:26:51;;;;;;;8.45;6.65;;;18.50;99.90;;;;;;4832436;29;20205;-76
2023/06/11 04:29:18;;;;;;;9.93;6.50;;;18.50;99.90;;;;;;4849359;29;20724;-76
2023/06/11 04:31:48;;;;;;;8.73;6.47;;;18.60;99.90;;;;;;4863459;29;20067;-75
2023/06/11 04:34:17;;;;;;;8.50;6.30;;;18.60;99.90;;;;;;4854762;29;20051;-76
2023/06/11 04:36:45;;;;;;;9.68;6.45;;;18.60;99.90;;;;;;4857207;29;20040;-76
2023/06/11 04:39:14;;;;;;;9.20;6.60;;;18.60;99.90;;;;;;4856810;29;20036;-76
2023/06/11 04:41:41;;;;;;;8.10;6.10;;;18.60;99.90;;;;;;4860405;29;20059;-76
2023/06/11 04:44:08;;;;;;;10.00;5.93;;;18.60;99.90;;;;;;4838048;29;20175;-76
2023/06/11 04:46:36;;;;;;;9.00;6.35;;;18.70;99.90;;;;;;4861580;29;20963;-76
2023/06/11 04:49:06;;;;;;;7.68;5.90;;;18.70;99.90;;;;;;4861422;29;20889;-76
2023/06/11 04:51:34;;;;;;;7.20;5.55;;;18.70;99.90;;;;;;4876946;29;20656;-76
2023/06/11 04:54:08;;;;;;;9.25;5.80;;;18.70;99.90;;;;;;4842900;29;20104;-76
2023/06/11 04:56:41;;;;;;;10.18;5.53;;;18.70;99.90;;;;;;4860098;29;20049;-76
2023/06/11 04:59:09;;;;;;;7.28;5.60;;;18.70;99.90;;;;;;4845862;29;20052;-76
2023/06/11 05:01:37;;;;;;;7.88;5.30;;;18.70;99.90;;;;;;4851245;29;20056;-76
2023/06/11 05:04:06;;;;;;;9.82;5.50;;;18.70;99.90;;;;;;4852346;29;20155;-76
2023/06/11 05:06:33;;;;;;;9.07;5.68;;;18.80;99.90;;;;;;4860721;29;20056;-76
2023/06/11 05:09:03;;;;;;;8.18;6.03;;;18.80;99.90;;;;;;4837260;29;20059;-76
2023/06/11 05:11:31;;;;;;;6.85;5.72;;;18.90;99.90;;;;;;4862696;29;20119;-76
2023/06/11 05:13:58;;;;;;;6.10;5.00;;;18.90;99.90;;;;;;4856991;29;20820;-76
2023/06/11 05:16:26;;;;;;;8.10;4.75;;;18.90;99.90;;;;;;4882160;29;20055;-76
2023/06/11 05:18:54;;;;;;;7.10;5.07;;;18.90;99.90;;;;;;4844544;29;20737;-76
2023/06/11 05:21:21;;;;;;;9.43;5.40;;;18.90;99.90;;;;;;4828569;29;20067;-76
2023/06/11 05:23:48;;;;;;;6.03;4.72;;;19.00;99.90;;;;;;4858091;29;20056;-76
2023/06/11 05:26:18;;;;;;;6.25;5.13;;;19.00;99.90;;;;;;4857936;29;20056;-76
2023/06/11 05:28:47;;;;;;;6.70;4.90;;;19.10;99.90;;;;;;4835678;29;20063;-76
2023/06/11 05:31:16;;;;;;;6.35;4.88;;;19.20;99.90;;;;;;4858309;29;22508;-76
2023/06/11 05:33:46;;;;;;;6.13;4.50;;;19.30;99.90;;;;;;4843411;29;20052;-76
2023/06/11 05:36:13;;;;;;;6.25;4.82;;;19.40;99.90;;;;;;4858074;29;20075;-76
2023/06/11 05:38:42;;;;;;;6.15;4.43;;;19.50;99.90;;;;;;4860612;29;20559;-76
2023/06/11 05:41:10;;;;;;;5.75;4.40;;;19.80;99.90;;;;;;4862334;29;20059;-76
2023/06/11 05:43:37;;;;;;;7.22;4.50;;;19.90;99.90;;;;;;4856047;29;20080;-76
2023/06/11 05:46:06;;;;;;;5.13;3.97;;;19.90;99.90;;;;;;4856348;29;20068;-76
2023/06/11 05:48:33;;;;;;;10.93;4.35;;;20.10;99.90;;;;;;4854173;29;20521;-76
2023/06/11 05:51:01;;;;;;;5.22;3.78;;;20.10;99.90;;;;;;4857870;29;20515;-75
2023/06/11 05:53:29;;;;;;;5.03;4.10;;;20.30;99.90;;;;;;4839613;29;20535;-76
2023/06/11 05:56:03;;;;;;;4.28;3.85;;;20.50;99.90;;;;;;4843607;29;20778;-76
2023/06/11 05:58:33;;;;;;;6.80;4.00;;;20.80;99.90;;;;;;4841687;29;20072;-77
2023/06/11 06:01:03;;;;;;;5.50;3.80;;;21.00;99.90;;;;;;4847747;29;20059;-76
2023/06/11 06:03:35;;;;;;;4.78;3.25;;;21.10;99.90;;;;;;4860841;29;20064;-76
2023/06/11 06:06:03;;;;;;;4.03;3.15;;;21.20;99.90;;;;;;4843110;29;20646;-76
2023/06/11 06:08:31;;;;;;;5.60;3.38;;;21.30;99.90;;;;;;4850086;29;21881;-78
2023/06/11 06:10:59;;;;;;;5.07;3.67;;;21.30;99.90;;;;;;4852019;29;20055;-76
2023/06/11 06:13:26;;;;;;;4.85;3.60;;;21.40;99.90;;;;;;4844436;29;20048;-76
2023/06/11 06:15:57;;;;;;;4.10;3.22;;;21.50;99.60;;;;;;4832371;29;20116;-76
2023/06/11 06:18:28;;;;;;;3.97;3.17;;;21.40;99.30;;;;;;4842250;29;20052;-77
2023/06/11 06:20:57;;;;;;;4.75;3.70;;;21.20;99.70;;;;;;4852084;29;20354;-76
2023/06/11 06:23:24;;;;;;;4.55;3.72;;;21.00;99.90;;;;;;4842507;29;20599;-76
2023/06/11 06:26:03;;;;;;;5.55;3.53;;;20.90;99.90;;;;;;4857076;29;20111;-77
2023/06/11 06:28:32;;;;;;;4.85;3.25;;;20.70;99.90;;;;;;4866777;29;20155;-76
2023/06/11 06:30:59;;;;;;;5.22;3.30;;;20.80;99.90;;;;;;4856724;29;20060;-76
2023/06/11 06:33:26;;;;;;;3.80;3.25;;;20.80;99.90;;;;;;4846217;29;20204;-76
2023/06/11 06:35:53;;;;;;;3.83;3.03;;;20.60;99.90;;;;;;4827869;29;20479;-77
2023/06/11 06:38:21;;;;;;;5.60;3.90;;;20.50;99.90;;;;;;4843814;29;20044;-76
2023/06/11 06:40:48;;;;;;;5.93;3.88;;;20.60;99.90;;;;;;4865422;29;20048;-77
2023/06/11 06:43:15;;;;;;;5.10;3.30;;;20.70;99.90;;;;;;4825239;29;20059;-75
2023/06/11 06:45:43;;;;;;;5.47;3.33;;;20.80;99.90;;;;;;4858292;29;20143;-76
2023/06/11 06:48:21;;;;;;;4.90;3.67;;;21.00;99.90;;;;;;4841758;29;20139;-77
2023/06/11 06:50:50;;;;;;;3.83;3.00;;;21.00;99.90;;;;;;4848964;29;20087;-76
2023/06/11 06:53:17;;;;;;;5.25;3.40;;;21.10;99.90;;;;;;4851781;29;20055;-77
2023/06/11 06:55:45;;;;;;;6.03;4.38;;;21.20;99.90;;;;;;4854039;29;20099;-76
2023/06/11 06:58:14;;;;;;;7.63;4.45;;;21.30;99.90;;;;;;4867607;29;20040;-76
2023/06/11 07:00:42;;;;;;;5.50;3.80;;;21.50;99.90;;;;;;4857329;29;20080;-76
2023/06/11 07:03:12;;;;;;;5.22;3.67;;;21.50;99.00;;;;;;4845970;29;20103;-77
2023/06/11 07:05:41;;;;;;;4.55;3.50;;;21.50;98.40;;;;;;4841589;29;20068;-76
2023/06/11 07:08:10;;;;;;;5.90;3.13;;;21.50;98.80;;;;;;4847699;29;22338;-76
2023/06/11 07:10:40;;;;;;;5.57;3.65;;;21.40;98.10;;;;;;4851392;29;20068;-76
2023/06/11 07:13:10;;;;;;;4.18;3.47;;;21.40;97.90;;;;;;4850828;29;20061;-77
2023/06/11 07:15:38;;;;;;;6.43;2.90;;;21.50;97.70;;;;;;4842981;29;20587;-76
2023/06/11 07:18:05;;;;;;;4.90;3.63;;;21.60;97.00;;;;;;4849905;29;22723;-77
2023/06/11 07:20:32;;;;;;;4.88;3.20;;;21.70;96.60;;;;;;4835465;29;20051;-77
2023/06/11 07:23:00;;;;;;;4.03;3.10;;;21.80;96.20;;;;;;4850763;29;20044;-76
2023/06/11 07:25:28;;;;;;;4.00;2.80;;;21.90;96.90;;;;;;4848097;29;20048;-76
2023/06/11 07:27:56;;;;;;;4.50;2.75;;;21.90;96.00;;;;;;4821923;29;22413;-76
2023/06/11 07:30:24;;;;;;;4.05;3.03;;;21.90;96.80;;;;;;4827395;29;20104;-77
2023/06/11 07:32:53;;;;;;;5.18;3.90;;;21.90;96.30;;;;;;4848389;29;20063;-76
2023/06/11 07:35:21;;;;;;;4.68;3.60;;;21.90;95.00;;;;;;4844931;29;20064;-76
2023/06/11 07:37:49;;;;;;;4.07;3.40;;;21.80;95.60;;;;;;4854384;29;20107;-76
2023/06/11 07:40:16;;;;;;;3.45;3.00;;;21.90;96.60;;;;;;4843772;29;20048;-76
2023/06/11 07:42:45;;;;;;;4.35;3.10;;;21.80;95.60;;;;;;4842300;29;20075;-77
2023/06/11 07:45:14;;;;;;;5.07;4.20;;;21.90;96.50;;;;;;4845407;29;20053;-76
2023/06/11 07:47:42;;;;;;;9.18;3.50;;;21.90;95.50;;;;;;4863508;29;20491;-76
2023/06/11 07:50:10;;;;;;;4.82;3.08;;;21.90;96.60;;;;;;4853951;29;20144;-76
2023/06/11 07:52:39;;;;;;;4.55;3.28;;;22.00;96.00;;;;;;4847990;29;20048;-77
2023/06/11 07:55:22;;;;;;;4.22;3.22;;;22.30;95.20;;;;;;4841944;29;20109;-76
2023/06/11 07:57:49;;;;;;;3.90;3.17;;;22.50;94.50;;;;;;4862271;29;20075;-76
2023/06/11 08:00:17;;;;;;;7.13;3.08;;;22.30;94.80;;;;;;4858605;29;20063;-77
2023/06/11 08:02:45;;;;;;;3.50;3.20;;;22.20;94.90;;;;;;4860097;29;20048;-77
2023/06/11 08:05:17;;;;;;;4.05;3.58;;;22.10;95.70;;;;;;4867424;29;20213;-76
2023/06/11 08:07:46;;;;;;;4.43;3.30;;;22.20;95.30;;;;;;4860537;29;20106;-77
2023/06/11 08:10:14;;;;;;;3.17;2.88;;;22.20;95.50;;;;;;4848980;29;20055;-76
2023/06/11 08:12:42;;;;;;;4.32;2.90;;;22.20;95.90;;;;;;4865536;29;20578;-77
2023/06/11 08:15:10;;;;;;;3.83;3.20;;;22.20;95.50;;;;;;4863340;29;20059;-78
2023/06/11 08:17:38;;;;;;;3.60;3.25;;;22.10;96.00;;;;;;4846746;29;20540;-77
2023/06/11 08:20:07;;;;;;;4.75;3.20;;;22.10;96.30;;;;;;4851621;29;20052;-77
2023/06/11 08:22:35;;;;;;;5.70;3.42;;;22.10;96.30;;;;;;4858105;29;20056;-77
2023/06/11 08:25:02;;;;;;;4.68;3.20;;;22.10;96.90;;;;;;4847448;29;20146;-76
2023/06/11 08:27:30;;;;;;;4.75;3.35;;;22.30;96.40;;;;;;4845348;29;20701;-77
2023/06/11 08:29:57;;;;;;;4.97;3.33;;;22.30;96.30;;;;;;4876318;29;20052;-77
2023/06/11 08:32:25;;;;;;;6.35;4.03;;;22.20;96.30;;;;;;4857236;29;20189;-76
2023/06/11 08:34:52;;;;;;;4.28;3.58;;;22.10;96.40;;;;;;4859395;29;20060;-77
2023/06/11 08:37:19;;;;;;;4.40;3.58;;;22.20;96.80;;;;;;4831360;29;20158;-77
2023/06/11 08:39:46;;;;;;;4.68;3.60;;;22.30;97.80;;;;;;4865204;29;20052;-78
2023/06/11 08:42:14;;;;;;;4.57;3.05;;;22.50;97.40;;;;;;4849018;29;20049;-78
2023/06/11 08:44:41;;;;;;;6.28;4.38;;;22.60;96.40;;;;;;4854805;29;20568;-77
2023/06/11 08:47:11;;;;;;;6.70;3.33;;;22.70;96.70;;;;;;4851144;29;20052;-77
2023/06/11 08:49:42;;;;;;;3.78;3.38;;;22.70;96.20;;;;;;4849261;29;20188;-77
2023/06/11 08:52:12;;;;;;;4.68;3.30;;;22.60;96.00;;;;;;4847412;29;20765;-77
2023/06/11 08:54:40;;;;;;;3.95;3.00;;;22.70;96.50;;;;;;4851449;29;20131;-76
2023/06/11 08:57:08;;;;;;;4.00;2.92;;;22.90;96.90;;;;;;4863074;29;20048;-76
2023/06/11 08:59:36;;;;;;;4.30;3.20;;;22.80;94.70;;;;;;4851259;29;20063;-78
2023/06/11 09:02:03;;;;;;;4.05;3.40;;;22.80;93.60;;;;;;4844349;29;20048;-76
2023/06/11 09:04:31;;;;;;;3.72;3.38;;;22.70;93.80;;;;;;4847184;29;21332;-77
2023/06/11 09:07:00;;;;;;;4.20;3.00;;;23.00;92.60;;;;;;4865423;29;20537;-76
2023/06/11 09:09:28;;;;;;;3.90;3.15;;;23.00;93.20;;;;;;4882132;29;20057;-77
2023/06/11 09:11:55;;;;;;;4.10;3.70;;;22.90;93.40;;;;;;4879330;29;20052;-77
2023/06/11 09:14:22;;;;;;;3.95;3.40;;;22.90;94.20;;;;;;4852371;29;20055;-76
2023/06/11 09:16:49;;;;;;;5.57;3.70;;;22.90;93.90;;;;;;4862844;29;20055;-76
2023/06/11 09:19:19;;;;;;;3.10;2.80;;;22.90;93.80;;;;;;4855734;29;20051;-77
2023/06/11 09:21:54;;;;;;;4.05;3.20;;;22.80;93.90;;;;;;4855109;29;20049;-76
2023/06/11 09:24:23;;;;;;;5.70;3.22;;;22.80;94.70;;;;;;4848974;29;20048;-77
2023/06/11 09:26:56;;;;;;;4.70;3.22;;;22.80;94.70;;;;;;4847860;29;20813;-77
2023/06/11 09:29:25;;;;;;;5.05;3.15;;;22.80;93.20;;;;;;4837764;29;22279;-76
2023/06/11 09:32:07;;;;;;;6.78;3.53;;;23.20;94.80;;;;;;4837677;29;20212;-77
2023/06/11 09:34:57;;;;;;;6.00;3.38;;;23.50;92.00;;;;;;4842365;29;20851;-77
2023/06/11 09:37:24;;;;;;;3.50;2.92;;;23.60;92.20;;;;;;4876793;29;20040;-76
2023/06/11 09:39:51;;;;;;;3.78;3.00;;;23.40;91.00;;;;;;4863475;29;20244;-77
2023/06/11 09:42:24;;;;;;;2.92;2.63;;;23.40;91.10;;;;;;4833220;29;20840;-77
2023/06/11 09:44:51;;;;;;;5.90;2.80;;;23.30;90.50;;;;;;4854947;29;20052;-77
2023/06/11 09:47:19;;;;;;;3.22;2.92;;;23.20;90.50;;;;;;4842108;29;22276;-77
2023/06/11 09:49:48;;;;;;;3.63;2.78;;;23.30;90.30;;;;;;4855084;29;20171;-77
2023/06/11 09:52:16;;;;;;;3.22;2.75;;;23.20;89.60;;;;;;4867847;29;20040;-79
2023/06/11 09:54:46;;;;;;;2.90;2.08;;;23.30;90.20;;;;;;4864383;29;20052;-77
2023/06/11 09:57:16;;;;;;;5.47;2.60;;;23.30;90.30;;;;;;4885004;29;20048;-76
2023/06/11 09:59:45;;;;;;;3.00;2.40;;;23.30;90.80;;;;;;4848732;29;20518;-76
2023/06/11 10:02:13;;;;;;;5.28;3.50;;;23.30;90.80;;;;;;4866332;29;20753;-76
2023/06/11 10:04:41;;;;;;;4.50;3.20;;;23.30;91.30;;;;;;4838697;29;20135;-75
2023/06/11 10:07:10;;;;;;;5.53;3.15;;;23.30;90.80;;;;;;4851645;29;20076;-75
2023/06/11 10:09:40;;;;;;;3.63;2.90;;;23.30;90.90;;;;;;4865772;29;20185;-76
2023/06/11 10:12:08;;;;;;;4.25;2.80;;;23.30;91.40;;;;;;4844668;29;20530;-75
2023/06/11 10:14:39;;;;;;;4.15;3.30;;;23.40;91.40;;;;;;4865470;29;20525;-76
2023/06/11 10:17:08;;;;;;;3.72;3.15;;;23.40;91.30;;;;;;4850003;29;20050;-76
2023/06/11 10:19:39;;;;;;;5.00;2.80;;;23.50;90.80;;;;;;4867709;29;20056;-77
2023/06/11 10:22:06;;;;;;;3.85;3.15;;;23.80;90.80;;;;;;4861040;29;20053;-78
2023/06/11 10:24:33;;;;;;;4.63;3.00;;;23.80;90.70;;;;;;4870672;29;20075;-78
2023/06/11 10:27:10;;;;;;;4.43;3.30;;;23.50;90.50;;;;;;4858840;29;20064;-77
2023/06/11 10:29:40;;;;;;;5.55;2.95;;;23.40;91.40;;;;;;4844930;29;20063;-76
2023/06/11 10:32:18;;;;;;;6.00;2.92;;;23.40;91.60;;;;;;4872001;29;20048;-78
2023/06/11 10:34:54;;;;;;;3.47;2.90;;;23.60;92.10;;;;;;4865348;29;20075;-78
2023/06/11 10:37:36;;;;;;;3.97;3.45;;;23.70;92.00;;;;;;4878765;29;20047;-75
2023/06/11 10:40:08;;;;;;;4.20;3.50;;;23.60;92.00;;;;;;4877216;29;20048;-75
2023/06/11 10:42:38;;;;;;;4.60;3.38;;;23.50;91.60;;;;;;4864003;29;20188;-76
2023/06/11 10:45:09;;;;;;;3.97;3.58;;;23.50;91.70;;;;;;4867214;29;20707;-75
2023/06/11 10:47:45;;;;;;;3.58;3.15;;;23.60;91.60;;;;;;4869323;29;20173;-78
2023/06/11 10:50:14;;;;;;;6.28;4.35;;;23.80;91.50;;;;;;4864046;29;20048;-78
2023/06/11 10:53:15;;;;;;;5.10;3.28;;;23.90;91.90;;;;;;4850985;29;20116;-76
2023/06/11 10:55:47;;;;;;;6.68;4.25;;;23.80;91.10;;;;;;4841409;29;20057;-77
2023/06/11 10:58:23;;;;;;;3.80;3.03;;;23.50;90.80;;;;;;4868053;29;20044;-76
2023/06/11 11:00:54;;;;;;;3.55;3.03;;;23.40;92.10;;;;;;4856333;29;20645;-76
2023/06/11 11:03:21;;;;;;;4.13;3.00;;;23.40;92.70;;;;;;4849662;29;20472;-76
2023/06/11 11:05:53;;;;;;;6.78;5.15;;;23.40;93.30;;;;;;4848063;29;22755;-76
2023/06/11 11:08:20;;;;;;;6.78;4.75;;;23.20;92.40;;;;;;4845513;29;20061;-76
2023/06/11 11:10:56;;;;;;;5.50;4.00;;;23.10;92.30;;;;;;4845839;29;20852;-76
2023/06/11 11:13:23;;;;;;;;;;;23.10;92.40;;;;;;4858701;29;20146;-76
2023/06/11 11:15:51;;;;;;;4.97;3.20;;;23.10;92.60;;;;;;4853168;29;19973;-78
2023/06/11 11:18:18;;;;;;;5.22;3.97;;;23.10;92.20;;;;;;4851357;29;20496;-77
2023/06/11 11:20:45;;;;;;;4.03;3.42;;;23.00;93.00;;;;;;4862685;29;20054;-77
2023/06/11 11:23:12;;;;;;;3.08;2.72;;;22.90;92.70;;;;;;4847328;29;20083;-76
2023/06/11 11:25:42;;;;;;;4.05;2.85;;;22.80;93.40;;;;;;4878248;29;21253;-78
2023/06/11 11:28:11;;;;;;;3.60;2.92;;;22.70;93.40;;;;;;4871093;29;20067;-77
2023/06/11 11:30:39;;;;;;;4.85;2.97;;;22.60;94.20;;;;;;4876520;29;20175;-77
2023/06/11 11:33:07;;;;;;;6.32;2.70;;;22.50;95.00;;;;;;4850022;29;20063;-77
2023/06/11 11:35:45;;;;;;;3.83;3.35;;;22.40;95.90;;;;;;4860206;29;20171;-77
2023/06/11 11:38:13;;;;;;;3.40;2.70;;;22.30;96.90;;;;;;4852961;29;20048;-77
2023/06/11 11:40:40;;;;;;;4.15;3.70;;;22.30;99.20;;;;;;4865929;29;21344;-77
2023/06/11 11:43:14;;;;;;;5.75;3.33;;;22.10;99.90;;;;;;4878580;29;20131;-77
2023/06/11 11:45:47;;;;;;;5.30;3.40;;;22.00;99.90;;;;;;4841022;29;20056;-77
2023/06/11 11:48:15;;;;;;;4.72;3.10;;;22.00;99.90;;;;;;4865283;29;20071;-76
2023/06/11 11:50:47;;;;;;;5.93;3.55;;;22.00;99.90;;;;;;4847883;29;20056;-77
2023/06/11 11:53:15;;;;;;;4.05;3.47;;;22.00;99.90;;;;;;4852460;29;20056;-76
2023/06/11 11:56:04;;;;;;;4.07;3.17;;;22.00;99.90;;;;;;4823096;29;20065;-77
2023/06/11 11:58:38;;;;;;;3.72;3.00;;;22.00;99.90;;;;;;4815486;29;20049;-76
2023/06/11 12:01:08;;;;;;;;;;;22.10;99.90;;;;;;4819035;29;20589;-77
2023/06/11 12:03:36;;;;;;;5.00;3.28;;;22.00;99.90;;;;;;4823389;29;19938;-77
2023/06/11 12:06:07;;;;;;;5.20;3.33;;;22.10;99.90;;;;;;4826401;29;20593;-78
2023/06/11 12:08:35;;;;;;;5.03;3.95;;;22.00;99.90;;;;;;4814262;29;20056;-77
2023/06/11 12:11:06;;;;;;;4.07;3.30;;;22.00;99.90;;;;;;4808699;29;22532;-77
2023/06/11 12:13:34;;;;;;;6.38;3.15;;;22.20;99.90;;;;;;4816361;29;22474;-76
2023/06/11 12:16:02;;;;;;;4.20;2.97;;;22.40;99.90;;;;;;4834344;29;20528;-75
2023/06/11 12:18:32;;;;;;;3.00;2.60;;;22.50;99.90;;;;;;4814086;29;20851;-78
2023/06/11 12:20:59;;;;;;;5.38;3.88;;;22.90;97.60;;;;;;4823923;29;20053;-77
2023/06/11 12:23:26;;;;;;;3.33;2.65;;;22.90;96.60;;;;;;4809048;29;22803;-77
2023/06/11 12:25:53;;;;;;;5.95;4.25;;;22.80;95.30;;;;;;4818098;29;20053;-78
2023/06/11 12:28:21;;;;;;;3.17;2.70;;;22.90;95.60;;;;;;4863669;29;20064;-78
2023/06/11 12:30:48;;;;;;;5.05;3.30;;;23.00;95.90;;;;;;4876315;29;20404;-79
2023/06/11 12:33:16;;;;;;;4.47;2.85;;;23.20;95.30;;;;;;4867025;29;20064;-76
2023/06/11 12:35:43;;;;;;;4.05;2.90;;;23.20;94.60;;;;;;4856203;29;20583;-77
2023/06/11 12:38:11;;;;;;;3.95;2.30;;;23.20;93.90;;;;;;4877310;29;20053;-76
2023/06/11 12:40:38;;;;;;;2.72;2.45;;;23.20;94.10;;;;;;4863028;29;20099;-77
2023/06/11 12:43:05;;;;;;;3.58;2.40;;;23.20;94.70;;;;;;4859935;29;20083;-77
2023/06/11 12:45:35;;;;;;;2.58;2.00;;;23.30;95.00;;;;;;4848263;29;20051;-77
2023/06/11 12:48:03;;;;;;;2.00;1.70;;;23.40;93.30;;;;;;4860303;29;22457;-76
2023/06/11 12:50:30;;;;;;;2.83;1.85;;;23.40;92.60;;;;;;4857573;29;20057;-76
2023/06/11 12:52:57;;;;;;;3.00;2.28;;;23.50;92.70;;;;;;4869474;29;20577;-75
2023/06/11 12:55:24;;;;;;;3.40;2.30;;;23.60;92.80;;;;;;4863755;29;20797;-76